Time;durP1;ratioP1;P1;durP2;ratioP2;P2;SDS_P1;SDS_P2;PMS_P1;PMS_P2;Temp;Humidity;BMP_temperature;BMP_pressure;BME280_temperature;BME280_humidity;BME280_pressure;Samples;Min_cycle;Max_cycle;Signal;HPM_P1;HPM_P2
2023/06/05 00:00:30;;;;;;;3.55;1.60;;;;;;;;;;5094205;28;20046;-72
2023/06/05 00:02:56;;;;;;;3.65;1.70;;;;;;;;;;5094087;28;20537;-66
2023/06/05 00:05:25;;;;;;;3.30;1.55;;;;;;;;;;5093787;28;20024;-69
2023/06/05 00:07:51;;;;;;;4.45;1.75;;;;;;;;;;5093996;28;20441;-71
2023/06/05 00:10:17;;;;;;;3.35;1.58;;;;;;;;;;5093773;28;20074;-71
2023/06/05 00:12:42;;;;;;;2.85;1.50;;;;;;;;;;5093871;28;20389;-72
2023/06/05 00:15:08;;;;;;;3.95;1.50;;;;;;;;;;5093297;28;20020;-70
2023/06/05 00:17:34;;;;;;;2.45;1.40;;;;;;;;;;5093719;28;20032;-70
2023/06/05 00:19:59;;;;;;;4.15;1.60;;;;;;;;;;5093474;28;20118;-72
2023/06/05 00:22:28;;;;;;;3.65;1.60;;;;;;;;;;5093632;28;20031;-73
2023/06/05 00:24:54;;;;;;;4.47;1.50;;;;;;;;;;5093765;28;20020;-72
2023/06/05 00:27:19;;;;;;;3.20;1.50;;;;;;;;;;5093844;28;20099;-71
2023/06/05 00:29:45;;;;;;;6.40;2.03;;;;;;;;;;5093512;28;20036;-72
2023/06/05 00:32:11;;;;;;;2.75;1.80;;;;;;;;;;5093702;28;20036;-73
2023/06/05 00:34:36;;;;;;;4.03;1.88;;;;;;;;;;5093341;28;20031;-71
2023/06/05 00:37:02;;;;;;;4.15;2.00;;;;;;;;;;5093287;28;20098;-72
2023/06/05 00:39:28;;;;;;;6.25;2.17;;;;;;;;;;5105075;28;20058;-73
2023/06/05 00:41:53;;;;;;;4.63;1.75;;;;;;;;;;5113718;28;20055;-72
2023/06/05 00:44:20;;;;;;;5.68;2.08;;;;;;;;;;5113823;28;20016;-73
2023/06/05 00:46:48;;;;;;;3.72;1.80;;;;;;;;;;5113548;28;20401;-72
2023/06/05 00:49:14;;;;;;;6.03;1.98;;;;;;;;;;5113384;28;20023;-72
2023/06/05 00:51:42;;;;;;;3.92;2.00;;;;;;;;;;5104153;28;20060;-70
2023/06/05 00:54:08;;;;;;;5.85;1.90;;;;;;;;;;5093260;28;20020;-72
2023/06/05 00:56:35;;;;;;;4.68;2.22;;;;;;;;;;5093406;28;20517;-72
2023/06/05 00:59:01;;;;;;;16.90;5.32;;;;;;;;;;5093174;28;20024;-72
2023/06/05 01:01:28;;;;;;;28.73;6.90;;;;;;;;;;5093194;28;20539;-71
2023/06/05 01:03:57;;;;;;;25.15;6.20;;;;;;;;;;5092825;28;20043;-71
2023/06/05 01:06:26;;;;;;;13.07;3.42;;;;;;;;;;5093116;28;20031;-71
2023/06/05 01:08:53;;;;;;;9.05;2.63;;;;;;;;;;5092851;28;20024;-72
2023/06/05 01:12:00;;;;;;;8.65;3.05;;;;;;;;;;5092973;28;20090;-67
2023/06/05 01:14:30;;;;;;;9.45;3.03;;;;;;;;;;5050579;28;20051;-71
2023/06/05 01:17:00;;;;;;;9.27;2.75;;;;;;;;;;5050341;28;20433;-70
2023/06/05 01:19:28;;;;;;;8.27;2.95;;;;;;;;;;5050509;28;20029;-72
2023/06/05 01:21:58;;;;;;;10.55;3.42;;;;;;;;;;5050413;28;20601;-72
2023/06/05 01:24:25;;;;;;;10.05;3.10;;;;;;;;;;5050627;28;20406;-71
2023/06/05 01:27:07;;;;;;;8.05;3.00;;;;;;;;;;5049693;28;20055;-72
2023/06/05 01:29:40;;;;;;;9.95;3.10;;;;;;;;;;5050408;28;20097;-72
2023/06/05 01:32:18;;;;;;;9.75;2.72;;;;;;;;;;5050266;28;20033;-72
2023/06/05 01:34:48;;;;;;;6.78;2.72;;;;;;;;;;5050384;28;20045;-72
2023/06/05 01:37:18;;;;;;;5.77;2.67;;;;;;;;;;5050247;28;20467;-71
2023/06/05 01:39:46;;;;;;;8.10;2.60;;;;;;;;;;5063978;28;20739;-72
2023/06/05 01:42:13;;;;;;;7.40;2.88;;;;;;;;;;5070441;28;20032;-72
2023/06/05 01:44:41;;;;;;;4.70;2.05;;;;;;;;;;5070408;28;20120;-71
2023/06/05 01:47:08;;;;;;;10.30;2.30;;;;;;;;;;5070448;28;20524;-71
2023/06/05 01:49:34;;;;;;;6.78;2.17;;;;;;;;;;5113023;28;20110;-72
2023/06/05 01:52:00;;;;;;;7.25;2.22;;;;;;;;;;5100507;28;20055;-71
2023/06/05 01:54:26;;;;;;;6.70;2.28;;;;;;;;;;5092590;28;20509;-71
2023/06/05 01:56:52;;;;;;;5.70;2.72;;;;;;;;;;5092481;28;20016;-70
2023/06/05 01:59:18;;;;;;;5.60;2.20;;;;;;;;;;5092325;28;20039;-72
2023/06/05 02:01:44;;;;;;;8.65;2.40;;;;;;;;;;5092192;28;20039;-65
2023/06/05 02:04:10;;;;;;;4.10;2.20;;;;;;;;;;5092491;28;20377;-70
2023/06/05 02:06:42;;;;;;;4.50;2.05;;;;;;;;;;5092376;28;20493;-69
2023/06/05 02:09:10;;;;;;;3.50;1.65;;;;;;;;;;5092301;28;20514;-68
2023/06/05 02:11:37;;;;;;;3.30;1.80;;;;;;;;;;5092305;28;20042;-69
2023/06/05 02:14:03;;;;;;;4.13;1.90;;;;;;;;;;5092329;28;20089;-71
2023/06/05 02:16:29;;;;;;;3.53;1.73;;;;;;;;;;5092118;28;20016;-68
2023/06/05 02:18:57;;;;;;;5.78;1.80;;;;;;;;;;5092267;28;20046;-72
2023/06/05 02:21:23;;;;;;;8.13;1.90;;;;;;;;;;5092305;28;20028;-71
2023/06/05 02:23:49;;;;;;;5.65;1.90;;;;;;;;;;5092210;28;20082;-72
2023/06/05 02:26:17;;;;;;;3.45;1.80;;;;;;;;;;5092217;28;20039;-68
2023/06/05 02:28:43;;;;;;;6.05;1.95;;;;;;;;;;5092175;28;20031;-71
2023/06/05 02:31:10;;;;;;;4.53;1.70;;;;;;;;;;5092015;28;20027;-71
2023/06/05 02:33:35;;;;;;;6.20;2.13;;;;;;;;;;5092194;28;20024;-67
2023/06/05 02:36:01;;;;;;;5.63;1.90;;;;;;;;;;5092146;28;20039;-69
2023/06/05 02:38:28;;;;;;;4.35;2.08;;;;;;;;;;5098350;28;20027;-67
2023/06/05 02:40:54;;;;;;;6.85;1.95;;;;;;;;;;5116108;28;20023;-70
2023/06/05 02:43:20;;;;;;;7.10;2.28;;;;;;;;;;5115895;27;20031;-70
2023/06/05 02:45:45;;;;;;;3.33;1.80;;;;;;;;;;5114718;28;20023;-72
2023/06/05 02:48:10;;;;;;;3.60;1.85;;;;;;;;;;5115767;28;20075;-70
2023/06/05 02:50:36;;;;;;;12.13;2.78;;;;;;;;;;5115549;27;20456;-70
2023/06/05 02:53:02;;;;;;;7.90;2.20;;;;;;;;;;5095443;28;20020;-71
2023/06/05 02:55:29;;;;;;;8.63;2.33;;;;;;;;;;5094319;28;20028;-70
2023/06/05 02:57:57;;;;;;;11.80;7.15;;;;;;;;;;5095153;28;20094;-67
2023/06/05 03:00:23;;;;;;;7.28;2.55;;;;;;;;;;5095408;28;20024;-71
2023/06/05 03:02:48;;;;;;;6.70;2.47;;;;;;;;;;5095401;28;20027;-71
2023/06/05 03:05:36;;;;;;;10.93;2.85;;;;;;;;;;5095360;28;20035;-68
2023/06/05 03:08:03;;;;;;;6.57;2.10;;;;;;;;;;5095134;28;20028;-69
2023/06/05 03:10:29;;;;;;;5.15;2.03;;;;;;;;;;5095175;28;20059;-71
2023/06/05 03:12:54;;;;;;;5.13;1.95;;;;;;;;;;5094916;28;20406;-69
2023/06/05 03:15:20;;;;;;;6.45;2.50;;;;;;;;;;5095149;28;20034;-69
2023/06/05 03:17:46;;;;;;;4.90;2.15;;;;;;;;;;5094914;28;20476;-66
2023/06/05 03:20:12;;;;;;;5.35;2.10;;;;;;;;;;5095087;28;20024;-66
2023/06/05 03:22:38;;;;;;;12.38;6.13;;;;;;;;;;5093524;28;20020;-65
2023/06/05 03:25:04;;;;;;;5.35;2.20;;;;;;;;;;5094880;28;20035;-70
2023/06/05 03:27:30;;;;;;;7.35;2.30;;;;;;;;;;5094603;28;20067;-68
2023/06/05 03:29:58;;;;;;;5.53;2.50;;;;;;;;;;5094699;28;20028;-68
2023/06/05 03:32:24;;;;;;;7.93;2.70;;;;;;;;;;5094508;28;20473;-66
2023/06/05 03:34:49;;;;;;;15.35;3.35;;;;;;;;;;5094687;28;20035;-70
2023/06/05 03:37:15;;;;;;;6.68;2.15;;;;;;;;;;5094385;28;20031;-70
2023/06/05 03:39:40;;;;;;;15.80;3.83;;;;;;;;;;5107826;28;20032;-66
2023/06/05 03:42:10;;;;;;;10.68;2.53;;;;;;;;;;5114557;28;20055;-67
2023/06/05 03:44:37;;;;;;;9.27;2.50;;;;;;;;;;5114957;28;20030;-70
2023/06/05 03:47:03;;;;;;;6.32;2.70;;;;;;;;;;5114586;28;20032;-64
2023/06/05 03:49:28;;;;;;;11.52;2.67;;;;;;;;;;5112814;28;20358;-67
2023/06/05 03:52:00;;;;;;;5.15;2.40;;;;;;;;;;5103323;28;20027;-71
2023/06/05 03:54:32;;;;;;;15.02;2.63;;;;;;;;;;5094288;28;20028;-66
2023/06/05 03:57:00;;;;;;;52.40;13.88;;;;;;;;;;5094014;28;20016;-63
2023/06/05 03:59:28;;;;;;;15.00;4.57;;;;;;;;;;5094086;28;20035;-67
2023/06/05 04:01:55;;;;;;;9.65;2.90;;;;;;;;;;5094167;28;20031;-66
2023/06/05 04:04:21;;;;;;;12.30;3.38;;;;;;;;;;5094129;28;20028;-72
2023/06/05 04:06:46;;;;;;;7.57;2.55;;;;;;;;;;5094086;28;20030;-71
2023/06/05 04:09:12;;;;;;;5.93;2.40;;;;;;;;;;5094002;28;20055;-71
2023/06/05 04:11:42;;;;;;;5.30;3.25;;;;;;;;;;5093612;28;20063;-72
2023/06/05 04:14:11;;;;;;;12.35;2.50;;;;;;;;;;5094157;28;20020;-71
2023/06/05 04:16:42;;;;;;;5.32;2.40;;;;;;;;;;5094083;28;20028;-72
2023/06/05 04:19:09;;;;;;;5.53;2.13;;;;;;;;;;5093766;28;20055;-71
2023/06/05 04:21:36;;;;;;;8.38;3.38;;;;;;;;;;5093853;28;20098;-71
2023/06/05 04:24:06;;;;;;;9.40;2.15;;;;;;;;;;5093762;28;20377;-70
2023/06/05 04:26:33;;;;;;;5.68;2.85;;;;;;;;;;5093650;28;20334;-71
2023/06/05 04:28:58;;;;;;;10.63;2.72;;;;;;;;;;5093779;28;20073;-71
2023/06/05 04:31:24;;;;;;;11.88;2.67;;;;;;;;;;5093611;28;20032;-70
2023/06/05 04:33:50;;;;;;;11.27;3.20;;;;;;;;;;5093476;28;20024;-71
2023/06/05 04:36:17;;;;;;;5.85;2.60;;;;;;;;;;5093473;28;20036;-69
2023/06/05 04:38:44;;;;;;;21.38;3.60;;;;;;;;;;5083883;28;20131;-71
2023/06/05 04:41:10;;;;;;;11.15;2.78;;;;;;;;;;5113651;28;20028;-71
2023/06/05 04:43:36;;;;;;;9.07;2.33;;;;;;;;;;5113821;28;20118;-70
2023/06/05 04:46:02;;;;;;;11.25;3.08;;;;;;;;;;5113672;28;20102;-72
2023/06/05 04:48:28;;;;;;;6.55;2.78;;;;;;;;;;5112245;28;20072;-70
2023/06/05 04:50:55;;;;;;;7.18;2.60;;;;;;;;;;5110896;28;20536;-71
2023/06/05 04:53:21;;;;;;;7.97;2.50;;;;;;;;;;5092925;28;20032;-67
2023/06/05 04:55:48;;;;;;;12.82;2.80;;;;;;;;;;5092942;28;20035;-70
2023/06/05 04:58:15;;;;;;;13.90;2.85;;;;;;;;;;5093053;28;20546;-70
2023/06/05 05:00:44;;;;;;;12.55;2.80;;;;;;;;;;5092831;28;20035;-71
2023/06/05 05:03:11;;;;;;;8.60;2.17;;;;;;;;;;5092821;28;20016;-70
2023/06/05 05:05:37;;;;;;;6.38;2.60;;;;;;;;;;5092987;28;20056;-71
2023/06/05 05:08:02;;;;;;;9.15;2.83;;;;;;;;;;5092890;28;20105;-71
2023/06/05 05:10:28;;;;;;;8.07;2.20;;;;;;;;;;5091449;28;20066;-69
2023/06/05 05:12:53;;;;;;;10.48;2.33;;;;;;;;;;5092752;28;20107;-68
2023/06/05 05:15:20;;;;;;;11.68;3.25;;;;;;;;;;5092682;28;20020;-69
2023/06/05 05:17:45;;;;;;;10.55;2.40;;;;;;;;;;5092736;28;20020;-69
2023/06/05 05:20:11;;;;;;;10.57;2.42;;;;;;;;;;5092786;28;20112;-64
2023/06/05 05:22:37;;;;;;;5.70;1.88;;;;;;;;;;5092690;28;20420;-66
2023/06/05 05:25:03;;;;;;;8.38;2.30;;;;;;;;;;5092319;28;20051;-68
2023/06/05 05:27:28;;;;;;;5.47;2.13;;;;;;;;;;5092841;28;20481;-69
2023/06/05 05:29:53;;;;;;;6.80;1.67;;;;;;;;;;5092678;28;20081;-62
2023/06/05 05:32:19;;;;;;;3.08;1.58;;;;;;;;;;5092689;28;20089;-67
2023/06/05 05:34:45;;;;;;;4.35;1.42;;;;;;;;;;5092673;28;20141;-67
2023/06/05 05:37:11;;;;;;;4.05;1.42;;;;;;;;;;5092622;28;20153;-65
2023/06/05 05:39:36;;;;;;;5.75;1.63;;;;;;;;;;5105192;28;20106;-61
2023/06/05 05:42:02;;;;;;;4.55;1.60;;;;;;;;;;5112919;28;20034;-67
2023/06/05 05:44:28;;;;;;;5.95;1.60;;;;;;;;;;5112962;28;20098;-71
2023/06/05 05:46:53;;;;;;;3.95;1.60;;;;;;;;;;5112927;28;20040;-72
2023/06/05 05:49:18;;;;;;;7.78;1.60;;;;;;;;;;5113000;28;20107;-71
2023/06/05 05:51:44;;;;;;;5.43;1.33;;;;;;;;;;5101619;28;20019;-71
2023/06/05 05:54:10;;;;;;;6.30;1.85;;;;;;;;;;5092258;28;20042;-69
2023/06/05 05:56:36;;;;;;;5.25;1.63;;;;;;;;;;5092383;28;20206;-71
2023/06/05 05:59:03;;;;;;;8.98;2.17;;;;;;;;;;5092291;28;20480;-70
2023/06/05 06:01:28;;;;;;;9.27;1.60;;;;;;;;;;5092317;28;20034;-70
2023/06/05 06:03:54;;;;;;;9.70;2.20;;;;;;;;;;5092237;28;20094;-70
2023/06/05 06:06:20;;;;;;;6.13;2.15;;;;;;;;;;5092448;28;20067;-70
2023/06/05 06:08:46;;;;;;;12.52;1.67;;;;;;;;;;5088932;28;20099;-69
2023/06/05 06:11:12;;;;;;;12.77;1.70;;;;;;;;;;5076764;28;20035;-70
2023/06/05 06:13:38;;;;;;;9.13;1.88;;;;;;;;;;5086680;28;20047;-71
2023/06/05 06:16:03;;;;;;;9.43;2.10;;;;;;;;;;5093949;28;20016;-73
2023/06/05 06:18:29;;;;;;;7.72;2.17;;;;;;;;;;5097530;28;20496;-70
2023/06/05 06:20:55;;;;;;;7.07;2.05;;;;;;;;;;5096426;28;20476;-70
2023/06/05 06:23:20;;;;;;;4.45;1.65;;;;;;;;;;5097306;28;20020;-66
2023/06/05 06:25:46;;;;;;;6.20;1.70;;;;;;;;;;5101259;28;20019;-71
2023/06/05 06:28:11;;;;;;;7.60;1.50;;;;;;;;;;5103822;28;20402;-71
2023/06/05 06:30:37;;;;;;;12.07;2.17;;;;;;;;;;5105901;28;20030;-70
2023/06/05 06:33:04;;;;;;;8.23;1.52;;;;;;;;;;5101306;28;20055;-70
2023/06/05 06:35:31;;;;;;;7.10;1.88;;;;;;;;;;5111623;28;20077;-71
2023/06/05 06:37:57;;;;;;;9.30;1.60;;;;;;;;;;5100168;28;20411;-70
2023/06/05 06:40:23;;;;;;;9.68;2.00;;;;;;;;;;5115369;28;20015;-70
2023/06/05 06:42:49;;;;;;;5.88;1.77;;;;;;;;;;5103166;28;20035;-68
2023/06/05 06:45:15;;;;;;;7.60;1.60;;;;;;;;;;5108886;28;20075;-71
2023/06/05 06:47:41;;;;;;;3.92;1.60;;;;;;;;;;5090915;28;20043;-60
2023/06/05 06:50:07;;;;;;;13.88;1.75;;;;;;;;;;5103074;28;20020;-61
2023/06/05 06:52:32;;;;;;;11.07;2.00;;;;;;;;;;5108625;28;20027;-61
2023/06/05 06:54:57;;;;;;;9.80;2.50;;;;;;;;;;5100993;28;20031;-60
2023/06/05 06:57:23;;;;;;;41.45;6.35;;;;;;;;;;5094902;28;20069;-62
2023/06/05 06:59:48;;;;;;;13.10;2.20;;;;;;;;;;5094891;28;20389;-59
2023/06/05 07:02:20;;;;;;;5.85;1.88;;;;;;;;;;5094978;28;20035;-61
2023/06/05 07:04:46;;;;;;;11.13;3.10;;;;;;;;;;5094575;28;20028;-61
2023/06/05 07:07:16;;;;;;;9.45;2.58;;;;;;;;;;5094938;28;20055;-61
2023/06/05 07:09:43;;;;;;;15.07;2.58;;;;;;;;;;5094368;28;20030;-63
2023/06/05 07:12:10;;;;;;;8.73;1.83;;;;;;;;;;5094765;28;20075;-60
2023/06/05 07:14:36;;;;;;;11.25;2.42;;;;;;;;;;5094735;28;20028;-59
2023/06/05 07:17:02;;;;;;;9.57;2.30;;;;;;;;;;5094533;28;20478;-59
2023/06/05 07:19:32;;;;;;;7.22;2.35;;;;;;;;;;5094302;28;20031;-63
2023/06/05 07:21:58;;;;;;;12.33;2.23;;;;;;;;;;5093437;28;20032;-62
2023/06/05 07:24:25;;;;;;;7.30;1.63;;;;;;;;;;5093339;28;20268;-62
2023/06/05 07:26:53;;;;;;;13.77;3.35;;;;;;;;;;5096780;28;20473;-68
2023/06/05 07:29:19;;;;;;;5.28;1.85;;;;;;;;;;5095001;28;20389;-61
2023/06/05 07:31:46;;;;;;;9.43;2.20;;;;;;;;;;5095716;28;20462;-60
2023/06/05 07:34:12;;;;;;;9.60;1.70;;;;;;;;;;5094760;28;20020;-70
2023/06/05 07:36:38;;;;;;;4.90;1.70;;;;;;;;;;5093918;28;20043;-70
2023/06/05 07:39:04;;;;;;;7.78;2.50;;;;;;;;;;5102451;28;20465;-70
2023/06/05 07:41:32;;;;;;;13.75;3.72;;;;;;;;;;5114473;28;20031;-62
2023/06/05 07:43:58;;;;;;;5.60;2.00;;;;;;;;;;5114849;28;20019;-72
2023/06/05 07:46:24;;;;;;;11.38;1.63;;;;;;;;;;5114332;28;20023;-72
2023/06/05 07:48:49;;;;;;;5.53;1.85;;;;;;;;;;5114380;28;20484;-71
2023/06/05 07:51:17;;;;;;;6.38;1.70;;;;;;;;;;5108518;28;20043;-68
2023/06/05 07:53:43;;;;;;;10.57;2.78;;;;;;;;;;5093886;28;20481;-69
2023/06/05 07:56:11;;;;;;;7.72;1.88;;;;;;;;;;5093964;28;20073;-70
2023/06/05 07:58:37;;;;;;;5.22;2.13;;;;;;;;;;5093655;28;20477;-69
2023/06/05 08:01:06;;;;;;;9.10;1.95;;;;;;;;;;5093786;28;20039;-70
2023/06/05 08:03:32;;;;;;;4.20;1.98;;;;;;;;;;5093557;28;20522;-71
2023/06/05 08:05:58;;;;;;;1.90;1.10;;;;;;;;;;5093677;28;20040;-70
2023/06/05 08:08:23;;;;;;;6.97;1.70;;;;;;;;;;5093431;28;20039;-71
2023/06/05 08:10:49;;;;;;;4.13;1.60;;;;;;;;;;5093411;28;20485;-69
2023/06/05 08:13:14;;;;;;;2.97;1.40;;;;;;;;;;5093164;28;20504;-69
2023/06/05 08:15:40;;;;;;;4.35;1.50;;;;;;;;;;5093515;28;20028;-70
2023/06/05 08:18:05;;;;;;;5.53;1.60;;;;;;;;;;5093187;28;20024;-70
2023/06/05 08:20:31;;;;;;;5.82;1.80;;;;;;;;;;5093338;28;20026;-71
2023/06/05 08:23:00;;;;;;;8.38;1.75;;;;;;;;;;5093029;28;20090;-69
2023/06/05 08:25:26;;;;;;;6.30;1.48;;;;;;;;;;5093091;28;20038;-70
2023/06/05 08:27:52;;;;;;;8.02;1.45;;;;;;;;;;5092718;28;20039;-71
2023/06/05 08:30:18;;;;;;;4.25;1.50;;;;;;;;;;5092952;28;20385;-71
2023/06/05 08:32:49;;;;;;;4.20;1.40;;;;;;;;;;5093014;28;20373;-65
2023/06/05 08:35:14;;;;;;;8.40;1.60;;;;;;;;;;5092802;28;20032;-72
2023/06/05 08:37:40;;;;;;;7.07;1.90;;;;;;;;;;5092913;28;20031;-72
2023/06/05 08:40:10;;;;;;;7.35;2.38;;;;;;;;;;5109948;28;20051;-72
2023/06/05 08:42:37;;;;;;;6.25;1.90;;;;;;;;;;5113354;28;20031;-71
2023/06/05 08:45:07;;;;;;;8.00;2.10;;;;;;;;;;5113465;28;20118;-65
2023/06/05 08:47:36;;;;;;;10.30;2.25;;;;;;;;;;5113092;28;20051;-68
2023/06/05 08:50:08;;;;;;;11.32;1.98;;;;;;;;;;5113516;28;20034;-68
2023/06/05 08:52:37;;;;;;;6.15;1.70;;;;;;;;;;5095938;28;20060;-71
2023/06/05 08:55:07;;;;;;;6.43;1.70;;;;;;;;;;5092804;28;20070;-73
2023/06/05 08:57:36;;;;;;;7.82;1.80;;;;;;;;;;5093003;28;20085;-65
2023/06/05 09:00:07;;;;;;;4.97;1.60;;;;;;;;;;5092850;28;20115;-72
2023/06/05 09:02:33;;;;;;;8.52;1.83;;;;;;;;;;5092513;28;20028;-70
2023/06/05 09:05:00;;;;;;;5.10;1.50;;;;;;;;;;5092727;28;20020;-70
2023/06/05 09:07:28;;;;;;;3.92;1.27;;;;;;;;;;5092520;28;20028;-71
2023/06/05 09:09:54;;;;;;;2.90;1.30;;;;;;;;;;5092516;28;20209;-71
2023/06/05 09:12:19;;;;;;;3.35;1.38;;;;;;;;;;5092448;28;20060;-69
2023/06/05 09:14:45;;;;;;;3.67;1.60;;;;;;;;;;5092706;28;20474;-69
2023/06/05 09:17:14;;;;;;;3.55;1.58;;;;;;;;;;5092245;28;20030;-70
2023/06/05 09:19:43;;;;;;;3.55;1.35;;;;;;;;;;5091889;28;20039;-70
2023/06/05 09:22:10;;;;;;;3.05;1.35;;;;;;;;;;5111702;28;20028;-61
2023/06/05 09:24:42;;;;;;;5.07;1.33;;;;;;;;;;5112950;28;20038;-64
2023/06/05 09:27:10;;;;;;;4.53;1.52;;;;;;;;;;5107482;28;20434;-71
2023/06/05 09:29:39;;;;;;;6.45;1.40;;;;;;;;;;5112623;28;20027;-68
2023/06/05 09:32:07;;;;;;;3.83;1.48;;;;;;;;;;5112822;28;20078;-73
2023/06/05 09:34:40;;;;;;;2.40;1.50;;;;;;;;;;5111503;28;20050;-72
2023/06/05 09:37:10;;;;;;;4.22;1.33;;;;;;;;;;5105707;28;20039;-71
2023/06/05 09:39:38;;;;;;;2.60;1.33;;;;;;;;;;5103663;28;20063;-71
2023/06/05 09:42:04;;;;;;;2.03;1.13;;;;;;;;;;5112637;28;20045;-72
2023/06/05 09:44:32;;;;;;;3.25;1.50;;;;;;;;;;5112551;28;20046;-64
2023/06/05 09:47:03;;;;;;;2.75;1.33;;;;;;;;;;5113714;28;20055;-68
2023/06/05 09:49:45;;;;;;;5.78;1.38;;;;;;;;;;5116814;28;20028;-70
2023/06/05 09:52:12;;;;;;;5.55;2.10;;;;;;;;;;5103076;28;20024;-70
2023/06/05 09:54:39;;;;;;;5.18;1.67;;;;;;;;;;5096257;28;20024;-71
2023/06/05 09:57:10;;;;;;;5.32;1.55;;;;;;;;;;5096218;28;20145;-72
2023/06/05 09:59:56;;;;;;;2.78;1.10;;;;;;;;;;5096075;28;20381;-72
2023/06/05 10:02:25;;;;;;;5.97;1.50;;;;;;;;;;5095492;28;20076;-71
2023/06/05 10:04:59;;;;;;;2.20;1.45;;;;;;;;;;5095480;28;20023;-71
2023/06/05 10:07:25;;;;;;;2.03;1.20;;;;;;;;;;5095632;28;20047;-70
2023/06/05 10:09:50;;;;;;;3.65;1.75;;;;;;;;;;5095949;28;20430;-71
2023/06/05 10:12:16;;;;;;;7.05;2.22;;;;;;;;;;5095768;28;20020;-71
2023/06/05 10:14:43;;;;;;;4.63;1.45;;;;;;;;;;5095745;28;20467;-66
2023/06/05 10:17:12;;;;;;;4.82;2.08;;;;;;;;;;5095922;28;20032;-68
2023/06/05 10:19:42;;;;;;;2.83;1.70;;;;;;;;;;5093059;28;20055;-73
2023/06/05 10:22:13;;;;;;;4.30;1.58;;;;;;;;;;5075536;28;20025;-71
2023/06/05 10:24:48;;;;;;;1.80;1.10;;;;;;;;;;5075346;28;20028;-71
2023/06/05 10:27:28;;;;;;;7.82;2.03;;;;;;;;;;5075456;28;20104;-72
2023/06/05 10:29:57;;;;;;;6.25;2.75;;;;;;;;;;5075327;28;20067;-73
2023/06/05 10:32:28;;;;;;;3.40;1.70;;;;;;;;;;5075402;28;20024;-71
2023/06/05 10:35:27;;;;;;;4.35;1.45;;;;;;;;;;5075247;28;20033;-71
2023/06/05 10:38:09;;;;;;;7.57;1.33;;;;;;;;;;5088391;28;20485;-71
2023/06/05 10:40:35;;;;;;;4.72;1.52;;;;;;;;;;5095606;28;20401;-68
2023/06/05 10:43:25;;;;;;;3.25;1.60;;;;;;;;;;5095401;28;20380;-71
2023/06/05 10:45:51;;;;;;;4.28;1.50;;;;;;;;;;5095287;28;20485;-71
2023/06/05 10:48:17;;;;;;;2.28;1.40;;;;;;;;;;5095106;28;20560;-72
2023/06/05 10:50:43;;;;;;;1.40;1.10;;;;;;;;;;5095039;28;20112;-63
2023/06/05 10:53:55;;;;;;;5.57;1.40;;;;;;;;;;5093449;28;20465;-72
2023/06/05 10:56:56;;;;;;;4.90;1.30;;;;;;;;;;5092849;28;20386;-70
2023/06/05 10:59:23;;;;;;;2.72;1.20;;;;;;;;;;5094680;28;20038;-65
2023/06/05 11:02:16;;;;;;;6.53;2.50;;;;;;;;;;5095130;28;20026;-68
2023/06/05 11:04:46;;;;;;;5.60;1.60;;;;;;;;;;5095022;28;20157;-69
2023/06/05 11:07:18;;;;;;;;;;;;;;;;;;5095146;28;20133;-65
2023/06/05 11:10:02;;;;;;;5.07;1.50;;;;;;;;;;5094604;28;20308;-71
2023/06/05 11:12:47;;;;;;;4.18;1.60;;;;;;;;;;5094452;28;20047;-71
2023/06/05 11:15:22;;;;;;;4.97;1.48;;;;;;;;;;5087123;28;20032;-68
2023/06/05 11:17:48;;;;;;;4.88;1.70;;;;;;;;;;5094879;28;20024;-66
2023/06/05 11:20:23;;;;;;;2.38;1.50;;;;;;;;;;5094642;28;20437;-70
2023/06/05 11:23:09;;;;;;;3.40;1.80;;;;;;;;;;5094903;28;20478;-72
2023/06/05 11:25:36;;;;;;;2.70;1.77;;;;;;;;;;5094496;28;20541;-70
2023/06/05 11:28:04;;;;;;;4.63;1.60;;;;;;;;;;5094185;28;20024;-72
2023/06/05 11:30:32;;;;;;;3.65;1.40;;;;;;;;;;5091595;28;20024;-71
2023/06/05 11:33:17;;;;;;;3.53;1.70;;;;;;;;;;5094345;28;20109;-72
2023/06/05 11:35:46;;;;;;;3.15;1.75;;;;;;;;;;5093087;28;20024;-71
2023/06/05 11:38:15;;;;;;;3.45;1.70;;;;;;;;;;5094891;28;20028;-72
2023/06/05 11:40:43;;;;;;;8.43;1.70;;;;;;;;;;5114392;27;20035;-72
2023/06/05 11:43:10;;;;;;;4.82;1.67;;;;;;;;;;5114672;28;20477;-72
2023/06/05 11:45:40;;;;;;;3.90;1.60;;;;;;;;;;5114697;28;20028;-72
2023/06/05 11:48:11;;;;;;;6.97;1.70;;;;;;;;;;5114366;28;20121;-71
2023/06/05 11:50:38;;;;;;;2.95;1.80;;;;;;;;;;5113855;28;20039;-69
2023/06/05 11:53:11;;;;;;;2.42;1.65;;;;;;;;;;5094051;28;20020;-71
2023/06/05 11:55:53;;;;;;;3.83;1.92;;;;;;;;;;5093717;28;20024;-66
2023/06/05 11:58:27;;;;;;;2.95;1.20;;;;;;;;;;5090308;28;20130;-73
2023/06/05 12:01:06;;;;;;;2.05;1.33;;;;;;;;;;5091443;28;20426;-72
2023/06/05 12:03:35;;;;;;;5.75;1.52;;;;;;;;;;5091278;28;20031;-72
2023/06/05 12:06:02;;;;;;;3.90;1.52;;;;;;;;;;5093295;28;20428;-72
2023/06/05 12:08:32;;;;;;;6.20;1.67;;;;;;;;;;5092697;28;20134;-72
2023/06/05 12:10:58;;;;;;;4.95;1.70;;;;;;;;;;5092356;28;20477;-72
2023/06/05 12:13:50;;;;;;;3.30;1.65;;;;;;;;;;5092379;28;20032;-68
2023/06/05 12:16:17;;;;;;;6.75;1.60;;;;;;;;;;5092275;28;20020;-72
2023/06/05 12:18:44;;;;;;;6.22;1.63;;;;;;;;;;5093287;28;20036;-72
2023/06/05 12:21:22;;;;;;;2.78;1.60;;;;;;;;;;5092516;28;20474;-68
2023/06/05 12:23:48;;;;;;;5.43;1.52;;;;;;;;;;5091414;28;20729;-72
2023/06/05 12:26:15;;;;;;;3.42;1.45;;;;;;;;;;5092134;28;20032;-72
2023/06/05 12:28:42;;;;;;;5.40;1.58;;;;;;;;;;5092672;28;20106;-72
2023/06/05 12:31:08;;;;;;;6.30;1.90;;;;;;;;;;5092086;28;20081;-71
2023/06/05 12:33:46;;;;;;;7.05;1.70;;;;;;;;;;5092034;28;20035;-69
2023/06/05 12:36:12;;;;;;;4.10;1.80;;;;;;;;;;5092861;28;20023;-70
2023/06/05 12:38:41;;;;;;;7.45;2.15;;;;;;;;;;5097368;28;20405;-70
2023/06/05 12:41:07;;;;;;;4.75;1.60;;;;;;;;;;5101336;28;20474;-65
2023/06/05 12:43:34;;;;;;;3.22;1.60;;;;;;;;;;5092442;28;20080;-72
2023/06/05 12:46:00;;;;;;;2.30;1.60;;;;;;;;;;5092967;28;20024;-68
2023/06/05 12:48:26;;;;;;;5.82;1.80;;;;;;;;;;5092057;28;20134;-70
2023/06/05 12:50:51;;;;;;;2.85;1.50;;;;;;;;;;5091523;28;20107;-71
2023/06/05 12:53:17;;;;;;;4.90;1.83;;;;;;;;;;5092538;28;20031;-70
2023/06/05 12:55:43;;;;;;;4.18;1.63;;;;;;;;;;5092709;28;20077;-67
2023/06/05 12:58:09;;;;;;;4.00;1.55;;;;;;;;;;5079051;28;20155;-63
2023/06/05 13:00:35;;;;;;;2.90;1.60;;;;;;;;;;5082818;28;20142;-64
2023/06/05 13:03:01;;;;;;;3.45;1.58;;;;;;;;;;5092054;28;20334;-66
2023/06/05 13:05:27;;;;;;;6.47;2.08;;;;;;;;;;5092733;28;20034;-67
2023/06/05 13:07:54;;;;;;;3.38;1.80;;;;;;;;;;5092072;28;20516;-67
2023/06/05 13:10:19;;;;;;;4.57;2.15;;;;;;;;;;5091471;28;20081;-62
2023/06/05 13:12:45;;;;;;;3.17;1.70;;;;;;;;;;5091430;28;20111;-67
2023/06/05 13:15:11;;;;;;;3.72;1.80;;;;;;;;;;5090559;28;20423;-66
2023/06/05 13:17:37;;;;;;;7.45;1.92;;;;;;;;;;5091343;28;20024;-68
2023/06/05 13:20:08;;;;;;;4.00;1.92;;;;;;;;;;5090461;28;20221;-65
2023/06/05 13:22:34;;;;;;;4.88;1.58;;;;;;;;;;5091322;28;20026;-67
2023/06/05 13:25:00;;;;;;;2.90;1.60;;;;;;;;;;5090866;28;20427;-66
2023/06/05 13:27:25;;;;;;;6.38;1.58;;;;;;;;;;5089842;28;20028;-67
2023/06/05 13:29:50;;;;;;;5.65;2.00;;;;;;;;;;5091313;28;20035;-68
2023/06/05 13:32:16;;;;;;;3.45;1.58;;;;;;;;;;5090715;28;20385;-67
2023/06/05 13:34:41;;;;;;;3.03;1.75;;;;;;;;;;5090700;28;20024;-66
2023/06/05 13:37:07;;;;;;;4.00;1.90;;;;;;;;;;5091125;28;20020;-65
2023/06/05 13:39:32;;;;;;;6.45;1.85;;;;;;;;;;5096315;28;20107;-64
2023/06/05 13:41:57;;;;;;;4.93;1.80;;;;;;;;;;5090173;28;20020;-65
2023/06/05 13:44:23;;;;;;;3.38;1.73;;;;;;;;;;5091121;28;20376;-64
2023/06/05 13:46:48;;;;;;;4.63;1.70;;;;;;;;;;5090952;28;20544;-65
2023/06/05 13:49:14;;;;;;;2.55;1.60;;;;;;;;;;5090983;28;20026;-66
2023/06/05 13:51:41;;;;;;;6.68;2.05;;;;;;;;;;5090924;28;20048;-67
2023/06/05 13:54:07;;;;;;;4.90;1.90;;;;;;;;;;5090570;28;20071;-63
2023/06/05 13:56:32;;;;;;;4.07;1.65;;;;;;;;;;5090131;28;20497;-65
2023/06/05 13:58:58;;;;;;;2.90;1.90;;;;;;;;;;5089201;28;20059;-63
2023/06/05 14:01:24;;;;;;;3.70;1.80;;;;;;;;;;5090355;28;20453;-65
2023/06/05 14:03:50;;;;;;;3.17;1.80;;;;;;;;;;5090848;28;20473;-64
2023/06/05 14:06:20;;;;;;;2.95;1.92;;;;;;;;;;5090288;28;20027;-65
2023/06/05 14:08:45;;;;;;;;;;;;;;;;;;5091634;28;20028;-65
2023/06/05 14:11:11;;;;;;;3.00;1.77;;;;;;;;;;5088885;28;19912;-65
2023/06/05 14:13:36;;;;;;;6.53;1.92;;;;;;;;;;5088715;28;20102;-65
2023/06/05 14:16:03;;;;;;;4.68;1.90;;;;;;;;;;5088574;28;20099;-65
2023/06/05 14:18:29;;;;;;;7.75;2.03;;;;;;;;;;5086492;28;20077;-66
2023/06/05 14:20:54;;;;;;;3.67;1.60;;;;;;;;;;5086934;28;20021;-66
2023/06/05 14:23:22;;;;;;;5.90;1.90;;;;;;;;;;5087553;28;20077;-66
2023/06/05 14:25:49;;;;;;;3.72;1.90;;;;;;;;;;5087943;28;20024;-66
2023/06/05 14:28:14;;;;;;;3.90;2.00;;;;;;;;;;5088422;28;20020;-68
2023/06/05 14:30:40;;;;;;;4.30;1.92;;;;;;;;;;5088314;28;20115;-68
2023/06/05 14:33:05;;;;;;;4.43;2.00;;;;;;;;;;5089556;28;20068;-65
2023/06/05 14:35:31;;;;;;;2.80;1.75;;;;;;;;;;5092436;28;20012;-67
2023/06/05 14:37:56;;;;;;;4.07;1.90;;;;;;;;;;5090399;28;20024;-67
2023/06/05 14:40:22;;;;;;;4.60;2.17;;;;;;;;;;5093989;28;20040;-66
2023/06/05 14:42:49;;;;;;;3.65;2.00;;;;;;;;;;5091126;28;20024;-65
2023/06/05 14:45:15;;;;;;;5.90;2.08;;;;;;;;;;5091086;28;20501;-66